createdAt,value
2022-10-04T00:00:29.355Z,4.65
2022-10-04T00:05:32.562Z,5.03
2022-10-04T00:10:35.500Z,5.50
2022-10-04T00:15:39.434Z,4.90
2022-10-04T00:20:50.982Z,5.03
2022-10-04T00:26:00.555Z,4.40
2022-10-04T00:31:16.685Z,5.32
2022-10-04T00:36:25.489Z,3.70
2022-10-04T00:41:34.549Z,4.68
2022-10-04T00:46:41.345Z,4.90
2022-10-04T00:51:51.363Z,2.38
2022-10-04T00:57:05.074Z,3.42
2022-10-04T01:02:29.255Z,4.50
2022-10-04T01:07:43.791Z,5.28
2022-10-04T01:13:09.304Z,5.40
2022-10-04T01:18:21.269Z,5.07
2022-10-04T01:23:43.791Z,4.82
2022-10-04T01:28:46.773Z,5.03
2022-10-04T01:33:49.638Z,5.15
2022-10-04T01:38:52.533Z,6.25
2022-10-04T01:44:00.587Z,5.15
2022-10-04T01:49:11.762Z,4.13
2022-10-04T01:54:31.744Z,5.27
2022-10-04T01:59:47.222Z,5.00
2022-10-04T02:04:58.398Z,4.80
2022-10-04T02:10:06.481Z,3.60
2022-10-04T02:15:11.774Z,5.03
2022-10-04T02:20:18.600Z,4.03
2022-10-04T02:25:21.852Z,4.35
2022-10-04T02:30:35.639Z,4.83
2022-10-04T02:35:45.214Z,3.75
2022-10-04T02:41:12.834Z,2.55
2022-10-04T02:46:28.447Z,3.30
2022-10-04T02:51:49.685Z,3.47
2022-10-04T02:56:56.026Z,3.10
2022-10-04T03:02:00.979Z,3.58
2022-10-04T03:07:08.444Z,3.55
2022-10-04T03:12:12.914Z,3.97
2022-10-04T03:17:17.396Z,4.05
2022-10-04T03:22:20.513Z,4.47
2022-10-04T03:27:27.307Z,5.70
2022-10-04T03:32:30.976Z,5.07
2022-10-04T03:37:38.026Z,6.53
2022-10-04T03:42:41.194Z,5.20
2022-10-04T03:47:48.373Z,4.10
2022-10-04T03:53:03.636Z,4.60
2022-10-04T03:58:07.485Z,3.58
2022-10-04T04:03:19.439Z,4.80
2022-10-04T04:08:35.079Z,3.72
2022-10-04T04:14:12.415Z,3.73
2022-10-04T04:19:19.803Z,3.45
2022-10-04T04:24:32.377Z,2.80
2022-10-04T04:29:53.737Z,2.90
2022-10-04T04:35:07.300Z,2.45
2022-10-04T04:40:28.073Z,3.00
2022-10-04T04:45:33.036Z,3.08
2022-10-04T04:50:39.743Z,3.25
2022-10-04T04:56:03.244Z,3.67
2022-10-04T05:01:29.202Z,5.93
2022-10-04T05:06:34.547Z,4.93
2022-10-04T05:11:39.624Z,5.30
2022-10-04T05:16:47.947Z,4.95
2022-10-04T05:21:53.524Z,5.57
2022-10-04T05:27:01.174Z,5.40
2022-10-04T05:32:29.274Z,5.87
2022-10-04T05:38:03.098Z,4.35
2022-10-04T05:43:23.114Z,5.72
2022-10-04T05:48:26.713Z,5.43
2022-10-04T05:53:34.379Z,5.07
2022-10-04T05:59:08.294Z,3.97
2022-10-04T06:04:57.467Z,3.90
2022-10-04T06:10:35.274Z,4.13
2022-10-04T06:16:13.215Z,4.10
2022-10-04T06:21:20.583Z,3.90
2022-10-04T06:26:31.392Z,3.37
2022-10-04T06:31:57.291Z,3.53
2022-10-04T06:37:23.403Z,4.28
2022-10-04T06:43:04.758Z,3.30
2022-10-04T06:48:26.013Z,3.35
2022-10-04T06:53:43.925Z,3.10
2022-10-04T06:59:08.557Z,2.88
2022-10-04T07:04:41.097Z,2.97
2022-10-04T07:10:27.869Z,3.33
2022-10-04T07:16:22.869Z,3.13
2022-10-04T07:21:50.121Z,2.67
2022-10-04T07:26:55.451Z,2.60
2022-10-04T07:32:14.565Z,2.83
2022-10-04T07:37:18.323Z,2.83
2022-10-04T07:42:33.764Z,3.40
2022-10-04T07:47:36.998Z,3.23
2022-10-04T07:53:09.831Z,2.92
2022-10-04T07:58:45.376Z,3.25
2022-10-04T08:04:51.923Z,3.13
2022-10-04T08:10:03.154Z,2.97
2022-10-04T08:15:14.632Z,3.30
2022-10-04T08:20:36.352Z,3.10
2022-10-04T08:26:08.223Z,2.75
2022-10-04T08:31:44.794Z,2.77
2022-10-04T08:37:14.277Z,2.50
2022-10-04T08:42:34.774Z,2.80
2022-10-04T08:48:08.603Z,2.67
2022-10-04T08:53:45.353Z,2.60
2022-10-04T08:59:07.288Z,3.17
2022-10-04T09:04:37.525Z,3.20
2022-10-04T09:10:15.444Z,3.03
2022-10-04T09:15:37.905Z,3.30
2022-10-04T09:20:51.861Z,2.67
2022-10-04T09:26:13.513Z,2.70
2022-10-04T09:31:45.988Z,3.15
2022-10-04T09:37:23.548Z,3.03
2022-10-04T09:43:03.394Z,2.72
2022-10-04T09:48:27.835Z,2.40
2022-10-04T09:53:46.625Z,2.80
2022-10-04T09:58:59.045Z,2.65
2022-10-04T10:04:28.714Z,2.20
2022-10-04T10:10:10.704Z,2.78
2022-10-04T10:15:16.598Z,2.10
2022-10-04T10:21:02.521Z,2.30
2022-10-04T10:26:14.062Z,2.22
2022-10-04T10:31:48.327Z,2.60
2022-10-04T10:37:16.353Z,2.47
2022-10-04T10:42:54.562Z,2.83
2022-10-04T10:48:02.034Z,2.53
2022-10-04T10:53:45.573Z,2.15
2022-10-04T10:59:18.746Z,2.40
2022-10-04T11:04:55.655Z,2.20
2022-10-04T11:10:39.284Z,2.47
2022-10-04T11:16:21.653Z,2.10
2022-10-04T11:21:54.111Z,2.17
2022-10-04T11:27:11.636Z,2.07
2022-10-04T11:32:37.765Z,2.15
2022-10-04T11:38:00.047Z,2.10
2022-10-04T11:43:38.339Z,1.60
2022-10-04T11:49:09.443Z,1.95
2022-10-04T11:54:27.793Z,2.30
2022-10-04T11:59:52.834Z,2.10
2022-10-04T12:05:12.314Z,2.35
2022-10-04T12:10:21.054Z,2.17
2022-10-04T12:15:39.344Z,1.70
2022-10-04T12:20:53.454Z,1.80
2022-10-04T12:26:32.988Z,2.15
2022-10-04T12:31:50.360Z,2.00
2022-10-04T12:37:26.170Z,2.00
2022-10-04T12:42:51.360Z,1.80
2022-10-04T12:48:06.294Z,1.67
2022-10-04T12:53:34.788Z,1.52
2022-10-04T12:58:46.360Z,2.00
2022-10-04T13:03:55.468Z,1.43
2022-10-04T13:09:13.475Z,2.10
2022-10-04T13:14:40.148Z,2.10
2022-10-04T13:20:01.221Z,1.63
2022-10-04T13:25:28.646Z,1.60
2022-10-04T13:30:49.974Z,1.70
2022-10-04T13:36:07.843Z,1.58
2022-10-04T13:41:25.922Z,1.43
2022-10-04T13:46:47.683Z,2.20
2022-10-04T13:52:21.070Z,2.10
2022-10-04T13:57:55.034Z,1.70
2022-10-04T14:03:25.825Z,1.70
2022-10-04T14:08:36.952Z,1.87
2022-10-04T14:13:57.789Z,1.70
2022-10-04T14:19:04.134Z,1.50
2022-10-04T14:24:46.975Z,1.47
2022-10-04T14:30:18.932Z,1.20
2022-10-04T14:35:28.343Z,1.63
2022-10-04T14:40:31.046Z,1.50
2022-10-04T14:46:10.157Z,1.60
2022-10-04T14:51:44.231Z,1.80
2022-10-04T14:56:59.500Z,1.70
2022-10-04T15:02:12.704Z,1.40
2022-10-04T15:07:21.909Z,1.50
2022-10-04T15:13:10.345Z,1.38
2022-10-04T15:18:44.247Z,1.30
2022-10-04T15:23:55.315Z,1.38
2022-10-04T15:29:24.451Z,1.53
2022-10-04T15:34:36.472Z,1.60
2022-10-04T15:39:44.965Z,1.33
2022-10-04T15:45:18.192Z,1.50
2022-10-04T15:50:21.594Z,1.60
2022-10-04T15:55:50.579Z,1.70
2022-10-04T16:01:20.527Z,2.10
2022-10-04T16:06:27.864Z,1.80
2022-10-04T16:11:58.279Z,1.90
2022-10-04T16:17:02.423Z,2.30
2022-10-04T16:22:18.532Z,2.20
2022-10-04T16:27:37.138Z,2.20
2022-10-04T16:32:46.021Z,2.45
2022-10-04T16:38:19.462Z,2.30
2022-10-04T16:43:28.744Z,2.33
2022-10-04T16:48:56.619Z,2.43
2022-10-04T16:54:11.372Z,2.28
2022-10-04T16:59:14.283Z,2.38
2022-10-04T17:04:25.799Z,2.40
2022-10-04T17:09:48.441Z,3.03
2022-10-04T17:15:16.786Z,2.73
2022-10-04T17:20:38.513Z,3.20
2022-10-04T17:26:06.102Z,3.35
2022-10-04T17:31:33.669Z,3.27
2022-10-04T17:36:39.543Z,3.63
2022-10-04T17:42:07.149Z,3.13
2022-10-04T17:47:54.163Z,3.45
2022-10-04T17:53:23.098Z,3.10
2022-10-04T17:58:30.916Z,3.07
2022-10-04T18:03:37.542Z,3.28
2022-10-04T18:09:08.064Z,3.13
2022-10-04T18:14:42.513Z,4.05
2022-10-04T18:20:05.391Z,4.03
2022-10-04T18:25:14.441Z,4.20
2022-10-04T18:30:23.564Z,4.70
2022-10-04T18:35:34.455Z,4.63
2022-10-04T18:40:55.474Z,5.22
2022-10-04T18:46:05.194Z,4.85
2022-10-04T18:51:31.204Z,4.70
2022-10-04T18:56:41.113Z,4.97
2022-10-04T19:02:06.795Z,4.77
2022-10-04T19:07:27.445Z,4.85
2022-10-04T19:12:53.215Z,5.05
2022-10-04T19:18:22.311Z,5.40
2022-10-04T19:23:31.563Z,4.85
2022-10-04T19:28:36.456Z,4.30
2022-10-04T19:33:48.853Z,4.38
2022-10-04T19:38:54.463Z,4.35
2022-10-04T19:44:16.618Z,4.67
2022-10-04T19:49:42.752Z,4.88
2022-10-04T19:54:46.835Z,4.27
2022-10-04T19:59:50.845Z,4.63
2022-10-04T20:04:53.643Z,4.93
2022-10-04T20:10:25.762Z,4.37
2022-10-04T20:15:28.617Z,4.45
2022-10-04T20:20:43.634Z,4.80
2022-10-04T20:25:46.566Z,4.82
2022-10-04T20:31:01.269Z,5.10
2022-10-04T20:36:06.157Z,4.13
2022-10-04T20:41:29.071Z,4.18
2022-10-04T20:46:38.439Z,4.77
2022-10-04T20:51:47.994Z,4.43
2022-10-04T20:56:51.815Z,4.80
2022-10-04T21:02:12.264Z,5.40
2022-10-04T21:07:20.259Z,4.65
2022-10-04T21:12:35.224Z,4.50
2022-10-04T21:17:38.183Z,4.78
2022-10-04T21:22:41.402Z,5.55
2022-10-04T21:27:44.174Z,5.40
2022-10-04T21:32:47.025Z,5.32
2022-10-04T21:37:50.133Z,5.80
2022-10-04T21:42:53.955Z,5.28
2022-10-04T21:47:56.754Z,4.70
2022-10-04T21:53:00.120Z,4.87
2022-10-04T21:58:02.809Z,6.05
2022-10-04T22:03:05.683Z,5.53
2022-10-04T22:08:08.524Z,4.95
2022-10-04T22:13:11.405Z,5.78
2022-10-04T22:18:14.286Z,5.60
2022-10-04T22:23:21.084Z,4.80
2022-10-04T22:28:26.794Z,5.10
2022-10-04T22:33:38.373Z,4.97
2022-10-04T22:38:44.621Z,5.13
2022-10-04T22:43:49.887Z,4.63
2022-10-04T22:48:52.581Z,4.68
2022-10-04T22:53:56.484Z,4.50
2022-10-04T22:59:00.296Z,4.53
2022-10-04T23:04:04.251Z,4.78
2022-10-04T23:09:06.978Z,4.27
2022-10-04T23:14:09.988Z,4.43
2022-10-04T23:19:19.113Z,4.57
2022-10-04T23:24:23.226Z,4.07
2022-10-04T23:29:30.651Z,3.80
2022-10-04T23:34:38.156Z,4.67
2022-10-04T23:39:41.178Z,5.05
2022-10-04T23:44:44.017Z,5.27
2022-10-04T23:49:50.988Z,4.70
2022-10-04T23:54:54.721Z,4.95
